Time;durP1;ratioP1;P1;durP2;ratioP2;P2;SDS_P1;SDS_P2;PMS_P1;PMS_P2;Temp;Humidity;BMP_temperature;BMP_pressure;BME280_temperature;BME280_humidity;BME280_pressure;Samples;Min_cycle;Max_cycle;Signal;HPM_P1;HPM_P2
2022/11/03 00:02:02;;;;;;;23.77;16.95;;;;;;;11.68;61.37;100657.00;1706154;82;21051;-72
2022/11/03 00:04:29;;;;;;;20.95;14.03;;;;;;;11.59;61.56;100667.96;1708844;82;21048;-72
2022/11/03 00:06:57;;;;;;;21.17;15.20;;;;;;;11.47;61.93;100668.95;1721981;82;21976;-73
2022/11/03 00:09:25;;;;;;;20.02;14.58;;;;;;;11.35;62.35;100666.21;1708178;82;21008;-73
2022/11/03 00:11:52;;;;;;;20.43;14.40;;;;;;;11.25;62.62;100666.95;1706043;84;21021;-72
2022/11/03 00:14:19;;;;;;;23.55;15.98;;;;;;;11.19;62.90;100662.13;1713974;82;21096;-73
2022/11/03 00:16:46;;;;;;;20.77;15.43;;;;;;;11.15;63.04;100655.67;1719341;82;21098;-72
2022/11/03 00:19:15;;;;;;;21.30;15.40;;;;;;;11.14;63.25;100659.95;1707194;82;21112;-73
2022/11/03 00:21:43;;;;;;;23.25;15.35;;;;;;;11.11;63.36;100657.25;1705854;84;21103;-73
2022/11/03 00:24:11;;;;;;;23.45;15.90;;;;;;;11.12;63.43;100656.22;1715965;82;21054;-72
2022/11/03 00:26:38;;;;;;;23.67;15.98;;;;;;;11.13;63.49;100652.47;1722427;82;21048;-73
2022/11/03 00:29:10;;;;;;;20.88;13.90;;;;;;;11.13;63.52;100654.34;1706772;82;21051;-73
2022/11/03 00:31:41;;;;;;;23.27;15.72;;;;;;;11.12;63.66;100652.70;1732921;82;21058;-73
2022/11/03 00:34:08;;;;;;;24.18;15.98;;;;;;;11.12;63.70;100646.03;1717438;82;21004;-72
2022/11/03 00:36:39;;;;;;;23.20;15.25;;;;;;;11.12;63.71;100651.38;1710747;82;21499;-73
2022/11/03 00:39:06;;;;;;;26.25;17.15;;;;;;;11.12;63.71;100646.86;1705934;84;20984;-73
2022/11/03 00:41:35;;;;;;;25.68;16.27;;;;;;;11.09;63.81;100639.34;1712912;82;21059;-74
2022/11/03 00:44:03;;;;;;;25.70;17.17;;;;;;;11.10;63.85;100648.97;1724508;82;21040;-73
2022/11/03 00:46:36;;;;;;;23.25;16.10;;;;;;;11.12;63.84;100644.19;1706010;82;22341;-74
2022/11/03 00:49:00;;;;;;;23.40;16.05;;;;;;;11.15;63.86;100646.84;1705841;82;21095;-73
2022/11/03 00:51:29;;;;;;;24.65;16.40;;;;;;;11.14;63.88;100646.58;1695559;82;21179;-72
2022/11/03 00:54:00;;;;;;;24.23;16.50;;;;;;;11.15;63.89;100649.52;1707510;82;21059;-73
2022/11/03 00:56:35;;;;;;;24.47;16.75;;;;;;;11.16;63.89;100653.29;1708025;82;21763;-72
2022/11/03 00:59:04;;;;;;;23.47;16.85;;;;;;;11.16;63.94;100655.16;1708092;82;20941;-73
2022/11/03 01:01:43;;;;;;;27.30;18.12;;;;;;;11.18;64.01;100646.33;1708261;82;21021;-73
2022/11/03 01:06:56;;;;;;;23.95;16.82;;;;;;;11.22;63.92;100649.59;1706135;84;21057;-74
2022/11/03 01:09:27;;;;;;;24.45;16.52;;;;;;;11.18;63.94;100652.48;1708323;82;21067;-72
2022/11/03 01:12:04;;;;;;;27.15;17.35;;;;;;;11.16;63.97;100645.80;1724083;82;21019;-73
2022/11/03 01:14:39;;;;;;;25.25;17.32;;;;;;;11.11;64.00;100647.09;1707507;82;21664;-73
2022/11/03 01:17:09;;;;;;;24.02;16.55;;;;;;;11.08;64.11;100639.05;1707936;82;21024;-72
2022/11/03 01:19:36;;;;;;;23.52;16.45;;;;;;;11.07;64.13;100642.00;1706150;82;21134;-73
2022/11/03 01:22:02;;;;;;;26.35;17.57;;;;;;;11.02;64.19;100635.56;1713550;82;21167;-73
2022/11/03 01:24:29;;;;;;;25.40;16.45;;;;;;;10.98;64.21;100633.11;1719949;82;21007;-73
2022/11/03 01:26:57;;;;;;;25.55;16.17;;;;;;;10.97;64.34;100631.52;1705640;84;20973;-74
2022/11/03 01:29:23;;;;;;;24.57;16.65;;;;;;;10.97;64.40;100622.70;1724527;82;21004;-73
2022/11/03 01:31:50;;;;;;;26.33;16.82;;;;;;;10.98;64.46;100634.45;1733054;82;21127;-72
2022/11/03 01:34:19;;;;;;;24.18;15.23;;;;;;;11.01;64.49;100642.48;1735312;82;21143;-73
2022/11/03 01:36:48;;;;;;;22.98;16.55;;;;;;;11.02;64.50;100650.77;1726443;82;21114;-73
2022/11/03 01:39:17;;;;;;;25.65;15.65;;;;;;;10.99;64.55;100644.09;1705979;84;21451;-73
2022/11/03 01:41:47;;;;;;;21.68;14.80;;;;;;;10.99;64.60;100642.77;1722025;82;21000;-72
2022/11/03 01:44:20;;;;;;;23.07;16.57;;;;;;;10.98;64.65;100646.48;1713844;82;21102;-72
2022/11/03 01:47:12;;;;;;;24.50;16.00;;;;;;;10.95;64.72;100642.98;1706813;82;21189;-72
2022/11/03 01:49:51;;;;;;;25.15;16.23;;;;;;;10.93;64.95;100642.98;1709768;82;21020;-73
2022/11/03 01:52:35;;;;;;;27.17;17.35;;;;;;;10.88;65.13;100655.77;1706451;84;20957;-73
2022/11/03 01:55:06;;;;;;;25.92;17.30;;;;;;;10.88;65.34;100658.97;1728233;82;21086;-72
2022/11/03 01:57:40;;;;;;;21.27;15.80;;;;;;;10.90;65.49;100660.87;1732595;82;21165;-73
2022/11/03 02:00:09;;;;;;;24.30;16.77;;;;;;;10.92;65.67;100651.51;1706006;84;21813;-72
2022/11/03 02:02:41;;;;;;;22.37;15.78;;;;;;;10.90;65.76;100647.50;1711568;82;21087;-72
2022/11/03 02:05:07;;;;;;;23.50;16.32;;;;;;;10.91;65.87;100645.09;1702468;82;21088;-73
2022/11/03 02:07:39;;;;;;;25.23;17.40;;;;;;;10.91;65.92;100651.24;1707978;82;21001;-73
2022/11/03 02:10:07;;;;;;;26.35;18.17;;;;;;;10.92;65.96;100647.50;1706097;82;21079;-72
2022/11/03 02:12:36;;;;;;;24.90;16.80;;;;;;;10.95;65.99;100649.66;1713238;82;21669;-73
2022/11/03 02:15:09;;;;;;;25.05;16.45;;;;;;;11.02;66.00;100652.94;1721646;81;21586;-72
2022/11/03 02:17:39;;;;;;;23.55;16.87;;;;;;;11.03;65.95;100658.55;1712263;82;21100;-72
2022/11/03 02:20:12;;;;;;;24.87;16.73;;;;;;;11.04;65.95;100650.80;1685926;84;21269;-72
2022/11/03 02:23:02;;;;;;;25.50;16.75;;;;;;;11.06;65.95;100647.88;1707295;82;21043;-72
2022/11/03 02:25:46;;;;;;;22.32;16.32;;;;;;;11.07;65.90;100646.81;1672138;83;21161;-73
2022/11/03 02:28:21;;;;;;;26.75;17.15;;;;;;;11.07;65.91;100642.80;1706050;84;20956;-73
2022/11/03 02:31:25;;;;;;;26.68;17.82;;;;;;;11.09;65.93;100653.22;1709405;82;21546;-71
2022/11/03 02:34:06;;;;;;;25.68;17.65;;;;;;;11.07;65.93;100650.82;1705848;83;21169;-71
2022/11/03 02:36:46;;;;;;;27.40;18.00;;;;;;;11.03;65.98;100652.41;1706144;84;20965;-72
2022/11/03 02:39:27;;;;;;;24.75;17.95;;;;;;;11.05;65.99;100651.59;1694928;82;21244;-72
2022/11/03 02:41:55;;;;;;;25.17;17.52;;;;;;;11.09;66.05;100637.19;1734135;82;20953;-72
2022/11/03 02:44:21;;;;;;;26.52;17.57;;;;;;;11.17;66.07;100642.86;1714796;82;20969;-73
2022/11/03 02:46:52;;;;;;;29.20;17.70;;;;;;;11.23;65.94;100646.38;1714687;82;21051;-73
2022/11/03 02:49:18;;;;;;;25.40;18.23;;;;;;;11.23;65.85;100653.86;1706719;82;21119;-72
2022/11/03 02:51:45;;;;;;;24.98;17.55;;;;;;;11.22;65.87;100644.23;1713176;82;21496;-73
2022/11/03 02:54:25;;;;;;;22.37;16.32;;;;;;;11.26;65.90;100639.17;1725029;82;21527;-72
2022/11/03 02:56:56;;;;;;;21.77;15.68;;;;;;;11.29;65.82;100640.00;1708651;82;21103;-73
2022/11/03 02:59:30;;;;;;;25.37;17.02;;;;;;;11.25;65.85;100645.56;1706237;82;21052;-72
2022/11/03 03:02:02;;;;;;;28.42;18.20;;;;;;;11.16;65.94;100642.59;1705743;82;21203;-72
2022/11/03 03:04:42;;;;;;;26.65;19.42;;;;;;;11.13;66.09;100641.77;1726933;82;21099;-73
2022/11/03 03:07:14;;;;;;;25.55;17.80;;;;;;;11.12;66.24;100636.67;1715729;82;21067;-72
2022/11/03 03:09:45;;;;;;;26.00;17.85;;;;;;;11.13;66.32;100631.62;1705777;84;28579;-72
2022/11/03 03:12:13;;;;;;;25.02;17.65;;;;;;;11.17;66.38;100624.69;1711714;82;20964;-72
2022/11/03 03:14:42;;;;;;;26.25;18.32;;;;;;;11.24;66.37;100629.27;1728647;82;21091;-72
2022/11/03 03:17:30;;;;;;;25.90;17.80;;;;;;;11.28;66.32;100620.98;1707250;82;21132;-71
2022/11/03 03:20:06;;;;;;;26.12;18.37;;;;;;;11.37;66.25;100630.13;1706197;82;21001;-72
2022/11/03 03:22:50;;;;;;;26.33;18.20;;;;;;;11.46;66.20;100624.56;1711022;82;21394;-72
2022/11/03 03:25:29;;;;;;;25.52;17.35;;;;;;;11.56;66.10;100614.98;1721711;82;21530;-72
2022/11/03 03:28:09;;;;;;;24.10;17.65;;;;;;;11.62;65.97;100618.75;1710417;82;21099;-73
2022/11/03 03:30:36;;;;;;;25.30;17.55;;;;;;;11.63;65.86;100609.64;1706978;82;21158;-72
2022/11/03 03:33:04;;;;;;;25.63;18.73;;;;;;;11.69;65.80;100613.15;1707437;82;21036;-72
2022/11/03 03:35:31;;;;;;;25.40;17.80;;;;;;;11.74;65.76;100606.46;1723521;82;21694;-72
2022/11/03 03:38:05;;;;;;;27.87;18.02;;;;;;;11.79;65.72;100601.13;1706211;84;21039;-72
2022/11/03 03:40:35;;;;;;;22.82;17.50;;;;;;;11.85;65.60;100607.34;1705264;82;21043;-72
2022/11/03 03:43:05;;;;;;;27.52;18.98;;;;;;;11.84;65.45;100607.02;1732370;82;21548;-74
2022/11/03 03:45:31;;;;;;;25.88;18.40;;;;;;;11.83;65.40;100610.23;1735275;82;20988;-73
2022/11/03 03:47:58;;;;;;;28.40;19.48;;;;;;;11.83;65.36;100606.77;1714660;82;21012;-72
2022/11/03 03:50:26;;;;;;;26.42;17.82;;;;;;;11.84;65.34;100603.84;1714159;82;20965;-73
2022/11/03 03:53:04;;;;;;;25.90;18.32;;;;;;;11.87;65.29;100605.19;1728282;82;21041;-73
2022/11/03 03:55:39;;;;;;;28.10;18.75;;;;;;;11.89;65.30;100605.20;1708439;83;21225;-74
2022/11/03 03:58:07;;;;;;;25.17;18.12;;;;;;;11.93;65.25;100600.92;1705984;83;21487;-73
2022/11/03 04:00:34;;;;;;;23.60;17.95;;;;;;;11.95;65.20;100603.35;1705935;84;21052;-73
2022/11/03 04:03:01;;;;;;;23.98;17.05;;;;;;;11.97;65.20;100606.01;1708123;82;20972;-73
2022/11/03 04:05:27;;;;;;;26.20;18.17;;;;;;;12.01;65.16;100598.79;1706132;84;20952;-72
2022/11/03 04:07:54;;;;;;;26.60;18.10;;;;;;;12.02;65.18;100596.41;1726793;82;21781;-72
2022/11/03 04:10:21;;;;;;;24.72;17.92;;;;;;;12.05;65.21;100594.00;1729694;82;23398;-72
2022/11/03 04:23:55;;;;;;;27.67;19.20;;;;;;;12.17;65.32;100569.63;1706326;82;21436;-73
2022/11/03 04:26:24;;;;;;;27.93;19.73;;;;;;;12.20;65.35;100574.45;1709603;82;21793;-73
2022/11/03 04:28:52;;;;;;;25.95;18.55;;;;;;;12.23;65.39;100565.89;1707036;82;21016;-73
2022/11/03 04:31:19;;;;;;;28.43;18.83;;;;;;;12.25;65.42;100571.79;1711610;82;21558;-74
2022/11/03 04:33:47;;;;;;;30.17;19.73;;;;;;;12.26;65.43;100566.69;1706998;82;21297;-72
2022/11/03 04:36:22;;;;;;;28.67;18.97;;;;;;;12.25;65.50;100574.47;1706140;84;21233;-72
2022/11/03 04:38:49;;;;;;;30.57;18.93;;;;;;;12.23;65.57;100575.26;1706253;82;21692;-73
2022/11/03 04:41:23;;;;;;;28.92;17.95;;;;;;;12.21;65.68;100573.41;1713842;82;21789;-73
2022/11/03 04:43:51;;;;;;;29.27;19.43;;;;;;;12.21;65.77;100574.73;1708083;82;21052;-73
2022/11/03 04:46:27;;;;;;;29.53;19.60;;;;;;;12.18;65.87;100580.63;1708650;82;21373;-73
2022/11/03 04:48:58;;;;;;;35.23;20.57;;;;;;;12.15;66.01;100575.27;1712648;82;21751;-73
2022/11/03 04:51:27;;;;;;;30.37;21.40;;;;;;;12.15;66.14;100575.80;1711801;82;21618;-73
2022/11/03 04:54:03;;;;;;;34.53;20.73;;;;;;;12.15;66.24;100572.59;1709757;83;21594;-73
2022/11/03 04:56:29;;;;;;;33.78;21.05;;;;;;;12.18;66.27;100575.27;1722477;82;21650;-74
2022/11/03 04:58:57;;;;;;;32.97;20.40;;;;;;;12.19;66.38;100575.53;1725149;82;21040;-72
2022/11/03 05:01:24;;;;;;;30.50;20.47;;;;;;;12.22;66.44;100576.34;1701331;82;21951;-74
2022/11/03 05:03:53;;;;;;;29.40;19.40;;;;;;;12.21;66.47;100574.73;1733837;82;21300;-73
2022/11/03 05:06:22;;;;;;;32.90;20.23;;;;;;;12.23;66.57;100573.13;1708611;82;21609;-74
2022/11/03 05:09:00;;;;;;;31.57;20.43;;;;;;;12.26;66.67;100572.59;1731797;82;21642;-72
2022/11/03 05:11:34;;;;;;;33.90;20.67;;;;;;;12.28;66.66;100573.94;1714418;82;21298;-72
2022/11/03 05:14:24;;;;;;;30.23;20.30;;;;;;;12.33;66.71;100573.13;1707869;82;21664;-73
2022/11/03 05:16:54;;;;;;;29.27;19.33;;;;;;;12.36;66.72;100570.70;1730152;82;21919;-73
2022/11/03 05:19:35;;;;;;;30.53;20.33;;;;;;;12.39;66.71;100576.07;1734165;82;21557;-74
2022/11/03 05:22:03;;;;;;;29.92;20.40;;;;;;;12.40;66.73;100577.67;1706754;82;21203;-74
2022/11/03 05:24:30;;;;;;;31.00;20.17;;;;;;;12.42;66.76;100578.22;1707374;82;21105;-74
2022/11/03 05:26:57;;;;;;;30.63;20.67;;;;;;;12.46;66.81;100577.14;1707977;82;21067;-74
2022/11/03 05:29:30;;;;;;;31.97;20.23;;;;;;;12.50;66.80;100578.20;1711686;82;21242;-74
2022/11/03 05:31:56;;;;;;;30.67;20.97;;;;;;;12.50;66.77;100578.20;1732198;82;21770;-74
2022/11/03 05:34:34;;;;;;;30.77;20.63;;;;;;;12.46;66.80;100576.59;1734190;82;21295;-73
2022/11/03 05:37:23;;;;;;;33.70;21.37;;;;;;;12.47;66.89;100589.45;1735190;82;21613;-73
2022/11/03 05:39:51;;;;;;;32.47;20.47;;;;;;;12.48;66.92;100589.20;1707208;82;21266;-73
2022/11/03 05:42:31;;;;;;;29.53;20.23;;;;;;;12.51;66.95;100583.84;1728713;82;21140;-73
2022/11/03 05:45:01;;;;;;;29.95;20.32;;;;;;;12.51;66.93;100584.64;1724187;82;21728;-74
2022/11/03 05:47:36;;;;;;;28.73;18.97;;;;;;;12.53;66.97;100587.84;1713095;82;21432;-74
2022/11/03 05:50:24;;;;;;;30.47;19.20;;;;;;;12.55;66.99;100587.05;1726440;82;21257;-74
2022/11/03 05:52:55;;;;;;;29.83;20.03;;;;;;;12.54;66.94;100592.15;1732212;82;21766;-75
2022/11/03 05:55:33;;;;;;;29.73;18.83;;;;;;;12.54;66.98;100585.99;1735767;82;21178;-74
2022/11/03 05:58:22;;;;;;;28.57;19.50;;;;;;;12.54;66.97;100592.69;1713659;82;21273;-75
2022/11/03 06:00:49;;;;;;;30.93;20.37;;;;;;;12.53;67.06;100589.72;1707406;82;21796;-75
2022/11/03 06:03:25;;;;;;;29.23;19.03;;;;;;;12.57;67.12;100585.42;1707953;82;21168;-73
2022/11/03 06:05:52;;;;;;;31.63;19.33;;;;;;;12.61;67.11;100583.30;1684045;84;21275;-75
2022/11/03 06:08:23;;;;;;;29.57;19.80;;;;;;;12.66;67.12;100587.84;1690062;84;21248;-74
2022/11/03 06:10:53;;;;;;;29.50;19.93;;;;;;;12.70;67.08;100583.56;1705651;82;21126;-75
2022/11/03 06:13:36;;;;;;;29.10;18.80;;;;;;;12.71;67.08;100590.52;1709245;82;21115;-75
2022/11/03 06:16:43;;;;;;;28.60;19.17;;;;;;;12.71;67.04;100593.20;1733389;82;21911;-75
2022/11/03 06:19:31;;;;;;;28.43;17.97;;;;;;;12.70;67.04;100591.61;1707923;82;21520;-74
2022/11/03 06:22:04;;;;;;;30.23;18.90;;;;;;;12.63;66.99;100600.43;1709154;82;21075;-75
2022/11/03 06:24:32;;;;;;;26.60;17.57;;;;;;;12.52;67.18;100594.82;1725452;82;21670;-74
2022/11/03 06:26:59;;;;;;;25.50;17.57;;;;;;;12.51;67.43;100597.24;1720847;82;21645;-74
2022/11/03 06:29:27;;;;;;;26.97;18.27;;;;;;;12.46;67.51;100590.53;1707235;82;21416;-74
2022/11/03 06:31:56;;;;;;;27.20;17.30;;;;;;;12.44;67.73;100592.95;1692777;83;21219;-74
2022/11/03 06:34:35;;;;;;;24.27;15.73;;;;;;;12.46;67.82;100595.89;1722899;82;21103;-73
2022/11/03 06:37:16;;;;;;;26.60;17.20;;;;;;;12.43;68.05;100591.87;1711223;82;21283;-74
2022/11/03 06:39:44;;;;;;;;;;;;;;;12.45;68.18;100599.11;1737313;82;21603;-74
2022/11/03 06:42:14;;;;;;;26.20;16.70;;;;;;;12.41;68.32;100598.84;1734059;82;21542;-75
2022/11/03 06:44:46;;;;;;;26.87;16.83;;;;;;;12.35;68.54;100598.57;1713252;82;21779;-74
2022/11/03 06:47:26;;;;;;;28.75;17.60;;;;;;;12.28;68.70;100595.36;1717006;82;21035;-74
2022/11/03 06:49:59;;;;;;;24.73;16.40;;;;;;;12.32;68.91;100595.63;1705602;82;21574;-76
2022/11/03 06:52:33;;;;;;;24.70;17.07;;;;;;;12.37;69.02;100593.77;1706049;84;21311;-75
2022/11/03 06:55:12;;;;;;;24.80;17.00;;;;;;;12.38;69.16;100597.23;1709826;82;21250;-74
2022/11/03 06:57:42;;;;;;;27.60;17.20;;;;;;;12.46;69.32;100587.31;1719342;82;21224;-75
2022/11/03 07:00:19;;;;;;;31.27;17.92;;;;;;;12.58;69.43;100577.67;1705818;83;21355;-76
2022/11/03 07:02:58;;;;;;;25.43;16.47;;;;;;;12.71;69.53;100571.77;1705608;82;21094;-75
2022/11/03 07:05:27;;;;;;;21.50;15.37;;;;;;;12.82;69.53;100573.34;1705826;84;21718;-75
2022/11/03 07:07:57;;;;;;;23.33;14.87;;;;;;;12.91;69.46;100571.72;1722534;82;21918;-75
2022/11/03 07:10:27;;;;;;;20.90;14.77;;;;;;;12.99;69.40;100573.03;1720994;82;21765;-75
2022/11/03 07:12:55;;;;;;;24.17;15.70;;;;;;;13.05;69.34;100573.28;1721217;82;21240;-75
2022/11/03 07:15:33;;;;;;;25.37;15.27;;;;;;;13.12;69.29;100574.33;1670539;86;21207;-75
2022/11/03 07:18:00;;;;;;;25.23;15.27;;;;;;;13.19;69.21;100571.36;1670928;86;20989;-73
2022/11/03 07:20:28;;;;;;;17.53;11.63;;;;;;;13.26;69.10;100579.43;1647103;85;21301;-74
2022/11/03 07:22:55;;;;;;;16.93;11.03;;;;;;;13.28;69.03;100573.23;1644859;86;21274;-74
2022/11/03 07:25:22;;;;;;;18.23;12.37;;;;;;;13.24;68.87;100582.91;1672381;84;21239;-73
2022/11/03 07:27:52;;;;;;;17.50;11.90;;;;;;;13.17;68.91;100587.74;1671170;84;21367;-75
2022/11/03 07:30:23;;;;;;;16.97;10.83;;;;;;;13.09;69.04;100582.38;1708458;82;21202;-75
2022/11/03 07:32:52;;;;;;;16.15;10.50;;;;;;;13.01;69.24;100586.98;1735840;82;21256;-74
2022/11/03 07:35:29;;;;;;;12.93;9.50;;;;;;;12.94;69.44;100582.98;1731166;82;21179;-75
2022/11/03 07:37:56;;;;;;;11.80;8.70;;;;;;;12.86;69.72;100585.12;1732565;82;21237;-75
2022/11/03 07:40:26;;;;;;;13.30;9.53;;;;;;;12.84;70.01;100580.58;1719384;82;21444;-74
2022/11/03 07:43:00;;;;;;;13.27;9.30;;;;;;;12.85;70.27;100580.05;1707210;82;21750;-75
2022/11/03 07:45:47;;;;;;;14.93;10.00;;;;;;;12.79;70.41;100583.26;1701922;83;21293;-76
2022/11/03 07:48:27;;;;;;;13.73;9.63;;;;;;;12.72;70.67;100581.40;1708844;82;21183;-74
2022/11/03 07:50:57;;;;;;;26.47;11.00;;;;;;;12.71;70.92;100582.48;1722390;82;21922;-75
2022/11/03 07:53:37;;;;;;;31.67;11.97;;;;;;;12.75;71.08;100586.22;1478882;82;10000451;-74
2022/11/03 07:56:24;;;;;;;16.57;11.43;;;;;;;12.80;71.20;100581.38;1597379;82;10000576;-75
2022/11/03 07:59:04;;;;;;;15.60;10.57;;;;;;;12.85;71.27;100580.05;1703819;82;21573;-75
2022/11/03 08:01:35;;;;;;;17.13;11.80;;;;;;;12.88;71.29;100574.14;1708535;82;21136;-76
2022/11/03 08:04:05;;;;;;;16.45;11.15;;;;;;;12.98;71.41;100561.25;1702992;82;21307;-75
2022/11/03 08:06:33;;;;;;;20.95;12.75;;;;;;;13.11;71.49;100555.31;1711297;82;21027;-75
2022/11/03 08:09:01;;;;;;;15.20;10.50;;;;;;;13.30;71.61;100555.00;1711957;82;21031;-75
2022/11/03 08:11:29;;;;;;;15.20;11.23;;;;;;;13.45;71.48;100560.02;1704601;82;21296;-76
2022/11/03 08:13:56;;;;;;;13.37;10.37;;;;;;;13.49;71.15;100569.94;1706514;82;21293;-76
2022/11/03 08:16:23;;;;;;;16.63;10.90;;;;;;;13.43;70.98;100564.88;1705862;82;21308;-75
2022/11/03 08:18:50;;;;;;;17.67;11.53;;;;;;;13.37;71.01;100564.89;1710520;82;21214;-75
2022/11/03 08:21:21;;;;;;;13.75;10.28;;;;;;;13.34;71.03;100563.30;1706610;82;21689;-76
2022/11/03 08:23:48;;;;;;;16.27;10.53;;;;;;;13.32;71.10;100564.09;1712040;82;21519;-76
2022/11/03 08:26:14;;;;;;;14.23;10.17;;;;;;;13.30;71.23;100556.34;1706287;82;21109;-74
2022/11/03 08:28:42;;;;;;;14.60;10.40;;;;;;;13.32;71.40;100559.53;1712417;82;21317;-76
2022/11/03 08:31:09;;;;;;;13.70;9.80;;;;;;;13.33;71.49;100559.02;1713179;82;21390;-76
2022/11/03 08:33:36;;;;;;;15.33;10.07;;;;;;;13.33;71.67;100554.99;1724893;82;21343;-75
2022/11/03 08:36:04;;;;;;;14.93;10.23;;;;;;;13.35;71.87;100546.11;1715824;82;21071;-75
2022/11/03 08:38:30;;;;;;;13.27;8.90;;;;;;;13.34;72.15;100550.68;1720401;82;21129;-74
2022/11/03 08:40:57;;;;;;;20.77;10.60;;;;;;;13.37;72.51;100553.36;1707636;82;21282;-75
2022/11/03 08:43:24;;;;;;;16.43;9.93;;;;;;;13.40;72.70;100547.98;1716337;82;21146;-74
2022/11/03 08:45:52;;;;;;;12.23;9.10;;;;;;;13.50;72.77;100547.94;1705829;82;21929;-74
2022/11/03 08:48:41;;;;;;;14.87;9.60;;;;;;;13.61;72.69;100545.45;1701044;82;21324;-76
2022/11/03 08:51:09;;;;;;;16.93;9.70;;;;;;;13.75;72.56;100542.39;1712252;82;21694;-77
2022/11/03 08:53:37;;;;;;;15.07;10.40;;;;;;;13.85;72.24;100533.48;1731316;81;21406;-76
2022/11/03 08:56:06;;;;;;;14.17;8.77;;;;;;;13.95;72.01;100521.34;1695723;82;21451;-75
2022/11/03 08:58:34;;;;;;;12.10;8.70;;;;;;;14.06;71.64;100518.83;1710868;82;21331;-76
2022/11/03 09:01:03;;;;;;;15.13;9.47;;;;;;;14.17;71.45;100520.09;1712573;83;21286;-77
2022/11/03 09:03:31;;;;;;;19.40;9.10;;;;;;;14.28;71.16;100529.14;1709122;83;21309;-75
2022/11/03 09:05:58;;;;;;;55.20;13.37;;;;;;;14.34;70.54;100516.98;1693407;83;21957;-78
2022/11/03 09:08:26;;;;;;;13.83;9.00;;;;;;;14.34;70.32;100520.47;1699244;82;21852;-76
2022/11/03 09:10:55;;;;;;;32.60;11.03;;;;;;;14.29;70.05;100525.36;1735084;80;21986;-76
2022/11/03 09:13:21;;;;;;;15.80;9.23;;;;;;;14.26;69.94;100519.20;1698894;82;21729;-77
2022/11/03 09:15:48;;;;;;;21.00;9.60;;;;;;;14.22;69.88;100518.17;1714552;83;21368;-77
2022/11/03 09:18:16;;;;;;;16.73;8.40;;;;;;;14.18;69.80;100517.14;1695661;83;21501;-76
2022/11/03 09:20:44;;;;;;;13.87;9.37;;;;;;;14.13;69.72;100518.51;1699798;83;21242;-79
2022/11/03 09:23:11;;;;;;;16.27;9.23;;;;;;;14.14;69.79;100517.41;1688467;83;21948;-77
2022/11/03 09:25:39;;;;;;;22.70;10.73;;;;;;;14.12;69.71;100521.49;1705515;83;21338;-77
2022/11/03 09:28:06;;;;;;;16.53;9.37;;;;;;;14.12;69.78;100518.26;1686846;84;22024;-76
2022/11/03 09:30:33;;;;;;;17.30;9.47;;;;;;;14.22;69.86;100520.06;1691495;84;21333;-78
2022/11/03 09:32:59;;;;;;;13.93;8.50;;;;;;;14.27;69.53;100516.77;1688496;84;21866;-77
2022/11/03 09:35:27;;;;;;;11.03;7.73;;;;;;;14.32;69.36;100515.94;1695478;84;21844;-77
2022/11/03 09:37:53;;;;;;;11.63;7.57;;;;;;;14.41;68.62;100513.42;1701488;83;21465;-76
2022/11/03 09:40:21;;;;;;;12.43;8.30;;;;;;;14.41;68.62;100513.42;1685816;84;21651;-75
2022/11/03 09:42:48;;;;;;;10.90;7.43;;;;;;;14.38;68.61;100520.70;1699582;84;21408;-75
2022/11/03 09:45:14;;;;;;;10.07;6.37;;;;;;;14.40;68.56;100516.66;1706527;84;21420;-76
2022/11/03 09:47:44;;;;;;;12.03;7.47;;;;;;;14.43;68.52;100523.36;1701656;82;21408;-76
2022/11/03 09:50:16;;;;;;;11.13;7.17;;;;;;;14.46;68.39;100517.41;1691176;83;21779;-76
2022/11/03 09:52:45;;;;;;;8.30;5.80;;;;;;;14.50;68.36;100515.23;1699139;84;22175;-75
2022/11/03 09:55:16;;;;;;;9.63;5.70;;;;;;;14.53;68.03;100516.02;1691823;84;21381;-77
2022/11/03 09:57:44;;;;;;;9.83;5.47;;;;;;;14.53;67.90;100517.91;1688567;84;21413;-77
2022/11/03 10:00:20;;;;;;;9.47;5.00;;;;;;;14.50;67.61;100511.20;1708112;83;21434;-75
2022/11/03 10:02:47;;;;;;;15.90;5.63;;;;;;;14.45;67.62;100507.77;1698662;84;21398;-76
2022/11/03 10:05:23;;;;;;;8.07;5.13;;;;;;;14.40;67.75;100511.83;1714799;82;21377;-75
2022/11/03 10:08:01;;;;;;;12.30;5.57;;;;;;;14.35;67.98;100516.72;1686542;82;21454;-75
2022/11/03 10:10:29;;;;;;;12.20;5.63;;;;;;;14.09;68.81;100510.76;1682452;82;21364;-78
2022/11/03 10:12:56;;;;;;;10.20;5.67;;;;;;;14.19;68.76;100504.50;1693705;84;21917;-78
2022/11/03 10:15:24;;;;;;;8.37;5.07;;;;;;;14.12;69.32;100516.91;1704817;82;21731;-76
2022/11/03 10:17:52;;;;;;;9.00;5.80;;;;;;;13.99;69.78;100506.81;1705934;82;21777;-78
2022/11/03 10:20:22;;;;;;;8.60;6.17;;;;;;;13.82;70.33;100497.81;1698795;82;21204;-78
2022/11/03 10:22:52;;;;;;;9.10;6.37;;;;;;;13.81;70.59;100500.22;1695514;82;21310;-79
2022/11/03 10:25:36;;;;;;;10.97;6.80;;;;;;;13.75;70.95;100498.65;1745151;82;21013;-78
2022/11/03 10:28:22;;;;;;;9.27;6.30;;;;;;;13.70;71.24;100496.81;1687191;84;21220;-78
2022/11/03 10:30:55;;;;;;;8.27;5.40;;;;;;;13.67;71.50;100497.38;1700070;84;22094;-77
2022/11/03 10:33:39;;;;;;;11.20;6.70;;;;;;;13.67;71.82;100504.08;1693575;84;21332;-78
2022/11/03 10:36:27;;;;;;;13.50;6.43;;;;;;;13.66;71.91;100498.46;1698165;82;21310;-78
2022/11/03 10:38:54;;;;;;;10.73;6.57;;;;;;;13.63;72.10;100503.04;1707914;82;21277;-77
2022/11/03 10:41:25;;;;;;;4.40;2.37;;;;;;;13.62;72.16;100513.49;1693505;84;21320;-77
2022/11/03 10:44:03;;;;;;;3.97;2.20;;;;;;;13.58;72.08;100509.22;1692233;82;21900;-77
2022/11/03 10:46:31;;;;;;;4.27;1.90;;;;;;;13.49;71.84;100512.77;1694154;84;21342;-77
2022/11/03 10:49:06;;;;;;;5.07;1.90;;;;;;;13.37;71.76;100519.83;1694061;82;21322;-79
2022/11/03 10:51:35;;;;;;;4.77;2.13;;;;;;;13.25;71.82;100518.80;1684819;82;21919;-77
2022/11/03 10:54:03;;;;;;;3.67;1.80;;;;;;;13.16;71.99;100535.16;1683928;84;21190;-77
2022/11/03 10:56:36;;;;;;;2.83;1.63;;;;;;;13.05;72.20;100506.25;1691474;82;21805;-77
2022/11/03 10:59:03;;;;;;;3.63;1.77;;;;;;;12.97;72.44;100512.19;1680505;84;21367;-76
2022/11/03 11:01:30;;;;;;;3.57;2.10;;;;;;;12.90;72.64;100528.56;1696558;84;21314;-77
2022/11/03 11:03:57;;;;;;;4.03;2.00;;;;;;;12.86;72.86;100511.94;1635023;85;21246;-79
2022/11/03 11:06:30;;;;;;;3.50;1.97;;;;;;;12.81;72.69;100526.17;1681518;85;21631;-78
2022/11/03 11:09:03;;;;;;;3.70;2.03;;;;;;;12.75;72.56;100507.70;1681882;84;21843;-76
2022/11/03 11:11:30;;;;;;;4.30;1.80;;;;;;;12.63;72.59;100514.14;1681697;85;21275;-74
2022/11/03 11:14:29;;;;;;;3.10;1.83;;;;;;;12.57;72.71;100530.50;1681853;85;21268;-78
2022/11/03 11:16:57;;;;;;;4.27;2.13;;;;;;;12.48;72.83;100516.07;1682002;85;21291;-76
2022/11/03 11:19:26;;;;;;;3.03;1.80;;;;;;;12.39;73.13;100522.50;1682263;85;21304;-75
2022/11/03 11:21:58;;;;;;;3.90;1.90;;;;;;;12.33;73.24;100524.91;1681769;85;21478;-79
2022/11/03 11:24:49;;;;;;;4.80;2.00;;;;;;;12.20;73.10;100515.00;1681706;84;21704;-77
2022/11/03 11:27:38;;;;;;;2.83;1.50;;;;;;;12.13;73.00;100520.37;1681936;85;21270;-76
2022/11/03 11:30:06;;;;;;;2.57;1.50;;;;;;;12.05;72.83;100530.28;1681856;84;21094;-77
2022/11/03 11:32:52;;;;;;;3.27;1.50;;;;;;;11.94;72.67;100524.93;1659887;85;21732;-77
2022/11/03 11:35:27;;;;;;;3.23;1.13;;;;;;;11.88;72.63;100522.52;1703183;84;21524;-76
2022/11/03 11:37:54;;;;;;;3.55;1.50;;;;;;;11.80;72.65;100533.70;1686388;82;21720;-77
2022/11/03 11:40:29;;;;;;;2.40;1.27;;;;;;;11.71;72.80;100526.71;1710013;83;21012;-77
2022/11/03 11:43:14;;;;;;;3.62;1.60;;;;;;;11.68;73.02;100526.73;1708140;82;21518;-77
2022/11/03 11:46:21;;;;;;;3.17;1.30;;;;;;;11.63;73.31;100516.55;1710436;84;20956;-77
2022/11/03 11:49:09;;;;;;;2.37;1.35;;;;;;;11.60;73.51;100513.86;1696198;82;21148;-76